sensor_id;sensor_type;location;lat;lon;timestamp;pressure;altitude;pressure_sealevel;temperature;humidity
4814;BME280;15375;48.540;9.268;2023-04-02T00:00:18;96584.31;;;7.61;100.00
4814;BME280;15375;48.540;9.268;2023-04-02T00:02:55;96564.09;;;7.43;100.00
4814;BME280;15375;48.540;9.268;2023-04-02T00:07:59;96588.66;;;7.55;100.00
4814;BME280;15375;48.540;9.268;2023-04-02T00:10:32;96578.28;;;7.50;100.00
4814;BME280;15375;48.540;9.268;2023-04-02T00:15:33;96572.78;;;7.34;100.00
4814;BME280;15375;48.540;9.268;2023-04-02T00:17:59;96565.59;;;7.24;100.00
4814;BME280;15375;48.540;9.268;2023-04-02T00:20:27;96582.09;;;7.33;100.00
4814;BME280;15375;48.540;9.268;2023-04-02T00:22:54;96569.09;;;7.25;100.00
4814;BME280;15375;48.540;9.268;2023-04-02T00:25:21;96577.63;;;7.23;100.00
4814;BME280;15375;48.540;9.268;2023-04-02T00:27:51;96567.59;;;7.20;100.00
4814;BME280;15375;48.540;9.268;2023-04-02T00:30:16;96561.88;;;7.15;100.00
4814;BME280;15375;48.540;9.268;2023-04-02T00:32:41;96596.00;;;7.35;100.00
4814;BME280;15375;48.540;9.268;2023-04-02T00:35:27;96576.38;;;7.28;100.00
4814;BME280;15375;48.540;9.268;2023-04-02T00:37:54;96578.38;;;7.24;100.00
4814;BME280;15375;48.540;9.268;2023-04-02T00:40:28;96599.13;;;7.34;100.00
4814;BME280;15375;48.540;9.268;2023-04-02T00:42:57;96577.31;;;7.18;100.00
4814;BME280;15375;48.540;9.268;2023-04-02T00:45:26;96581.56;;;7.19;100.00
4814;BME280;15375;48.540;9.268;2023-04-02T00:47:54;96593.84;;;7.27;100.00
4814;BME280;15375;48.540;9.268;2023-04-02T00:50:29;96573.31;;;7.02;100.00
4814;BME280;15375;48.540;9.268;2023-04-02T00:52:58;96569.53;;;6.96;100.00
4814;BME280;15375;48.540;9.268;2023-04-02T00:55:36;96599.19;;;7.07;100.00
4814;BME280;15375;48.540;9.268;2023-04-02T00:58:04;96608.06;;;7.07;100.00
4814;BME280;15375;48.540;9.268;2023-04-02T01:00:37;96566.75;;;6.77;100.00
4814;BME280;15375;48.540;9.268;2023-04-02T01:03:27;96566.00;;;6.76;100.00
4814;BME280;15375;48.540;9.268;2023-04-02T01:06:00;96613.63;;;7.00;100.00
4814;BME280;15375;48.540;9.268;2023-04-02T01:11:26;96610.66;;;6.91;100.00
4814;BME280;15375;48.540;9.268;2023-04-02T01:14:05;96624.56;;;6.93;100.00
4814;BME280;15375;48.540;9.268;2023-04-02T01:16:37;96623.91;;;6.86;100.00
4814;BME280;15375;48.540;9.268;2023-04-02T01:22:21;96613.09;;;6.59;100.00
4814;BME280;15375;48.540;9.268;2023-04-02T01:24:56;96600.59;;;6.38;100.00
4814;BME280;15375;48.540;9.268;2023-04-02T01:27:33;96634.38;;;6.57;100.00
4814;BME280;15375;48.540;9.268;2023-04-02T01:30:04;96633.66;;;6.53;100.00
4814;BME280;15375;48.540;9.268;2023-04-02T01:32:31;96625.22;;;6.48;100.00
4814;BME280;15375;48.540;9.268;2023-04-02T01:34:58;96622.56;;;6.44;100.00
4814;BME280;15375;48.540;9.268;2023-04-02T01:37:40;96612.66;;;6.34;100.00
4814;BME280;15375;48.540;9.268;2023-04-02T01:45:36;96614.63;;;6.30;100.00
4814;BME280;15375;48.540;9.268;2023-04-02T01:48:07;96601.66;;;6.14;100.00
4814;BME280;15375;48.540;9.268;2023-04-02T01:50:38;96625.53;;;6.23;100.00
4814;BME280;15375;48.540;9.268;2023-04-02T01:53:08;96585.78;;;5.82;100.00
4814;BME280;15375;48.540;9.268;2023-04-02T01:58:15;96631.00;;;6.19;100.00
4814;BME280;15375;48.540;9.268;2023-04-02T02:00:49;96629.41;;;6.22;100.00
4814;BME280;15375;48.540;9.268;2023-04-02T02:03:18;96589.97;;;5.91;100.00
4814;BME280;15375;48.540;9.268;2023-04-02T02:05:44;96609.31;;;5.89;100.00
4814;BME280;15375;48.540;9.268;2023-04-02T02:08:29;96630.84;;;6.00;100.00
4814;BME280;15375;48.540;9.268;2023-04-02T02:10:56;96593.84;;;5.90;100.00
4814;BME280;15375;48.540;9.268;2023-04-02T02:13:21;96612.25;;;6.02;100.00
4814;BME280;15375;48.540;9.268;2023-04-02T02:15:47;96594.19;;;5.92;100.00
4814;BME280;15375;48.540;9.268;2023-04-02T02:18:16;96594.25;;;5.88;100.00
4814;BME280;15375;48.540;9.268;2023-04-02T02:20:44;96623.47;;;6.04;100.00
4814;BME280;15375;48.540;9.268;2023-04-02T02:23:10;96602.00;;;5.86;100.00
4814;BME280;15375;48.540;9.268;2023-04-02T02:25:37;96628.03;;;6.07;100.00
4814;BME280;15375;48.540;9.268;2023-04-02T02:28:19;96631.44;;;6.14;100.00
4814;BME280;15375;48.540;9.268;2023-04-02T02:30:49;96649.81;;;6.30;100.00
4814;BME280;15375;48.540;9.268;2023-04-02T02:36:05;96654.44;;;6.33;100.00
4814;BME280;15375;48.540;9.268;2023-04-02T02:38:49;96653.66;;;6.32;100.00
4814;BME280;15375;48.540;9.268;2023-04-02T02:41:27;96657.03;;;6.40;100.00
4814;BME280;15375;48.540;9.268;2023-04-02T02:46:24;96665.03;;;6.51;100.00
4814;BME280;15375;48.540;9.268;2023-04-02T02:48:52;96600.94;;;6.10;100.00
4814;BME280;15375;48.540;9.268;2023-04-02T02:51:28;96632.81;;;6.29;100.00
4814;BME280;15375;48.540;9.268;2023-04-02T02:53:59;96636.28;;;6.30;100.00
4814;BME280;15375;48.540;9.268;2023-04-02T02:56:26;96647.06;;;6.33;100.00
4814;BME280;15375;48.540;9.268;2023-04-02T02:58:53;96656.34;;;6.36;100.00
4814;BME280;15375;48.540;9.268;2023-04-02T03:01:19;96654.66;;;6.46;100.00
4814;BME280;15375;48.540;9.268;2023-04-02T03:03:45;96671.09;;;6.62;100.00
4814;BME280;15375;48.540;9.268;2023-04-02T03:06:15;96628.06;;;6.37;100.00
4814;BME280;15375;48.540;9.268;2023-04-02T03:08:45;96656.16;;;6.50;100.00
4814;BME280;15375;48.540;9.268;2023-04-02T03:11:24;96680.41;;;6.61;100.00
4814;BME280;15375;48.540;9.268;2023-04-02T03:13:56;96656.94;;;6.47;100.00
4814;BME280;15375;48.540;9.268;2023-04-02T03:16:31;96652.75;;;6.42;100.00
4814;BME280;15375;48.540;9.268;2023-04-02T03:19:01;96679.59;;;6.64;100.00
4814;BME280;15375;48.540;9.268;2023-04-02T03:21:43;96669.19;;;6.59;100.00
4814;BME280;15375;48.540;9.268;2023-04-02T03:24:34;96681.78;;;6.72;100.00
4814;BME280;15375;48.540;9.268;2023-04-02T03:29:39;96666.03;;;6.64;100.00
4814;BME280;15375;48.540;9.268;2023-04-02T03:32:17;96680.97;;;6.75;100.00
4814;BME280;15375;48.540;9.268;2023-04-02T03:34:55;96699.78;;;6.89;100.00
4814;BME280;15375;48.540;9.268;2023-04-02T03:37:26;96692.09;;;6.84;100.00
4814;BME280;15375;48.540;9.268;2023-04-02T03:40:01;96675.09;;;6.80;100.00
4814;BME280;15375;48.540;9.268;2023-04-02T03:42:44;96699.66;;;6.96;100.00
4814;BME280;15375;48.540;9.268;2023-04-02T03:45:16;96704.28;;;6.99;100.00
4814;BME280;15375;48.540;9.268;2023-04-02T03:50:19;96709.25;;;7.04;100.00
4814;BME280;15375;48.540;9.268;2023-04-02T03:52:47;96692.00;;;6.91;100.00
4814;BME280;15375;48.540;9.268;2023-04-02T03:55:23;96702.78;;;6.95;100.00
4814;BME280;15375;48.540;9.268;2023-04-02T03:58:12;96719.91;;;7.15;100.00
4814;BME280;15375;48.540;9.268;2023-04-02T04:03:31;96706.81;;;7.10;100.00
4814;BME280;15375;48.540;9.268;2023-04-02T04:06:27;96723.34;;;7.19;100.00
4814;BME280;15375;48.540;9.268;2023-04-02T04:08:58;96698.78;;;7.03;100.00
4814;BME280;15375;48.540;9.268;2023-04-02T04:11:30;96722.59;;;7.19;100.00
4814;BME280;15375;48.540;9.268;2023-04-02T04:16:48;96737.59;;;7.27;100.00
4814;BME280;15375;48.540;9.268;2023-04-02T04:19:29;96741.41;;;7.29;100.00
4814;BME280;15375;48.540;9.268;2023-04-02T04:22:15;96733.84;;;7.17;100.00
4814;BME280;15375;48.540;9.268;2023-04-02T04:24:43;96719.22;;;7.11;100.00
4814;BME280;15375;48.540;9.268;2023-04-02T04:27:27;96744.50;;;7.31;100.00
4814;BME280;15375;48.540;9.268;2023-04-02T04:30:27;96759.19;;;7.34;100.00
4814;BME280;15375;48.540;9.268;2023-04-02T04:32:59;96759.59;;;7.32;100.00
4814;BME280;15375;48.540;9.268;2023-04-02T04:35:35;96760.00;;;7.31;100.00
4814;BME280;15375;48.540;9.268;2023-04-02T04:40:54;96759.59;;;7.32;100.00
4814;BME280;15375;48.540;9.268;2023-04-02T04:46:39;96748.13;;;7.21;100.00
4814;BME280;15375;48.540;9.268;2023-04-02T04:49:23;96773.50;;;7.34;100.00
4814;BME280;15375;48.540;9.268;2023-04-02T04:51:58;96755.47;;;7.21;100.00
4814;BME280;15375;48.540;9.268;2023-04-02T04:54:26;96760.50;;;7.22;100.00
4814;BME280;15375;48.540;9.268;2023-04-02T04:56:58;96759.38;;;7.20;100.00
4814;BME280;15375;48.540;9.268;2023-04-02T04:59:26;96785.13;;;7.35;100.00
4814;BME280;15375;48.540;9.268;2023-04-02T05:02:02;96784.38;;;7.34;100.00
4814;BME280;15375;48.540;9.268;2023-04-02T05:04:34;96756.00;;;7.12;100.00
4814;BME280;15375;48.540;9.268;2023-04-02T05:07:06;96791.41;;;7.28;100.00
4814;BME280;15375;48.540;9.268;2023-04-02T05:09:42;96785.28;;;7.24;100.00
4814;BME280;15375;48.540;9.268;2023-04-02T05:12:25;96793.41;;;7.24;100.00
4814;BME280;15375;48.540;9.268;2023-04-02T05:15:16;96782.69;;;7.14;100.00
4814;BME280;15375;48.540;9.268;2023-04-02T05:20:21;96794.66;;;7.20;100.00
4814;BME280;15375;48.540;9.268;2023-04-02T05:23:12;96782.06;;;7.02;100.00
4814;BME280;15375;48.540;9.268;2023-04-02T05:26:14;96806.34;;;7.13;100.00
4814;BME280;15375;48.540;9.268;2023-04-02T05:31:24;96783.34;;;6.94;100.00
4814;BME280;15375;48.540;9.268;2023-04-02T05:33:53;96810.19;;;7.16;100.00
4814;BME280;15375;48.540;9.268;2023-04-02T05:36:25;96789.13;;;6.96;100.00
4814;BME280;15375;48.540;9.268;2023-04-02T05:38:53;96779.44;;;6.95;100.00
4814;BME280;15375;48.540;9.268;2023-04-02T05:43:48;96800.19;;;7.09;100.00
4814;BME280;15375;48.540;9.268;2023-04-02T05:46:19;96823.19;;;7.28;100.00
4814;BME280;15375;48.540;9.268;2023-04-02T05:48:51;96790.47;;;7.12;100.00
4814;BME280;15375;48.540;9.268;2023-04-02T05:51:24;96830.69;;;7.47;100.00
4814;BME280;15375;48.540;9.268;2023-04-02T05:53:54;96829.00;;;7.56;100.00
4814;BME280;15375;48.540;9.268;2023-04-02T05:56:25;96826.88;;;7.41;100.00
4814;BME280;15375;48.540;9.268;2023-04-02T05:58:59;96798.06;;;7.24;100.00
4814;BME280;15375;48.540;9.268;2023-04-02T06:04:21;96838.38;;;7.79;100.00
4814;BME280;15375;48.540;9.268;2023-04-02T06:07:02;96841.22;;;7.68;100.00
4814;BME280;15375;48.540;9.268;2023-04-02T06:09:40;96843.13;;;7.71;100.00
4814;BME280;15375;48.540;9.268;2023-04-02T06:14:42;96837.56;;;7.55;100.00
4814;BME280;15375;48.540;9.268;2023-04-02T06:17:15;96834.53;;;7.49;100.00
4814;BME280;15375;48.540;9.268;2023-04-02T06:19:42;96853.66;;;7.65;100.00
4814;BME280;15375;48.540;9.268;2023-04-02T06:24:43;96831.91;;;7.69;100.00
4814;BME280;15375;48.540;9.268;2023-04-02T06:27:12;96841.75;;;7.86;100.00
4814;BME280;15375;48.540;9.268;2023-04-02T06:29:41;96860.09;;;8.05;100.00
4814;BME280;15375;48.540;9.268;2023-04-02T06:32:09;96869.53;;;8.20;100.00
4814;BME280;15375;48.540;9.268;2023-04-02T06:34:37;96869.13;;;8.22;100.00
4814;BME280;15375;48.540;9.268;2023-04-02T06:37:12;96872.94;;;8.28;100.00
4814;BME280;15375;48.540;9.268;2023-04-02T06:39:39;96868.16;;;8.09;100.00
4814;BME280;15375;48.540;9.268;2023-04-02T06:42:11;96853.81;;;8.08;100.00
4814;BME280;15375;48.540;9.268;2023-04-02T06:44:38;96860.19;;;8.21;100.00
4814;BME280;15375;48.540;9.268;2023-04-02T06:47:21;96862.09;;;8.24;100.00
4814;BME280;15375;48.540;9.268;2023-04-02T06:49:57;96885.03;;;8.70;100.00
4814;BME280;15375;48.540;9.268;2023-04-02T06:52:33;96865.94;;;8.73;100.00
4814;BME280;15375;48.540;9.268;2023-04-02T06:55:05;96869.66;;;8.83;100.00
4814;BME280;15375;48.540;9.268;2023-04-02T06:57:38;96878.47;;;9.10;100.00
4814;BME280;15375;48.540;9.268;2023-04-02T07:00:04;96897.09;;;9.31;100.00
4814;BME280;15375;48.540;9.268;2023-04-02T07:02:34;96898.28;;;9.30;100.00
4814;BME280;15375;48.540;9.268;2023-04-02T07:05:04;96905.13;;;9.38;100.00
4814;BME280;15375;48.540;9.268;2023-04-02T07:07:30;96908.22;;;9.37;100.00
4814;BME280;15375;48.540;9.268;2023-04-02T07:09:56;96903.22;;;9.35;100.00
4814;BME280;15375;48.540;9.268;2023-04-02T07:12:23;96890.91;;;9.47;100.00
4814;BME280;15375;48.540;9.268;2023-04-02T07:14:49;96929.56;;;9.78;100.00
4814;BME280;15375;48.540;9.268;2023-04-02T07:17:16;96912.44;;;9.77;100.00
4814;BME280;15375;48.540;9.268;2023-04-02T07:19:42;96924.00;;;10.01;100.00
4814;BME280;15375;48.540;9.268;2023-04-02T07:22:10;96934.59;;;10.15;100.00
4814;BME280;15375;48.540;9.268;2023-04-02T07:24:35;96935.31;;;10.19;100.00
4814;BME280;15375;48.540;9.268;2023-04-02T07:27:01;96941.63;;;10.32;100.00
4814;BME280;15375;48.540;9.268;2023-04-02T07:29:26;96952.00;;;10.37;100.00
4814;BME280;15375;48.540;9.268;2023-04-02T07:31:51;96896.53;;;9.76;100.00
4814;BME280;15375;48.540;9.268;2023-04-02T07:34:18;96925.50;;;9.86;100.00
4814;BME280;15375;48.540;9.268;2023-04-02T07:36:43;96957.31;;;10.08;100.00
4814;BME280;15375;48.540;9.268;2023-04-02T07:39:09;96969.31;;;10.11;100.00
4814;BME280;15375;48.540;9.268;2023-04-02T07:41:53;96957.47;;;10.01;100.00
4814;BME280;15375;48.540;9.268;2023-04-02T07:44:18;96951.75;;;9.96;100.00
4814;BME280;15375;48.540;9.268;2023-04-02T07:46:44;96934.34;;;9.90;100.00
4814;BME280;15375;48.540;9.268;2023-04-02T07:49:09;96975.09;;;9.97;100.00
4814;BME280;15375;48.540;9.268;2023-04-02T07:51:34;96976.59;;;9.98;100.00
4814;BME280;15375;48.540;9.268;2023-04-02T07:54:01;96968.25;;;9.89;100.00
4814;BME280;15375;48.540;9.268;2023-04-02T07:56:27;96977.69;;;10.20;100.00
4814;BME280;15375;48.540;9.268;2023-04-02T07:58:53;96985.88;;;10.20;100.00
4814;BME280;15375;48.540;9.268;2023-04-02T08:01:21;96956.19;;;10.06;100.00
4814;BME280;15375;48.540;9.268;2023-04-02T08:03:49;96987.44;;;10.37;100.00
4814;BME280;15375;48.540;9.268;2023-04-02T08:06:14;96976.25;;;10.15;100.00
4814;BME280;15375;48.540;9.268;2023-04-02T08:08:40;96998.06;;;10.15;100.00
4814;BME280;15375;48.540;9.268;2023-04-02T08:11:06;96997.84;;;10.26;100.00
4814;BME280;15375;48.540;9.268;2023-04-02T08:13:31;96984.44;;;10.15;100.00
4814;BME280;15375;48.540;9.268;2023-04-02T08:15:58;96994.66;;;10.27;100.00
4814;BME280;15375;48.540;9.268;2023-04-02T08:18:24;96987.94;;;10.16;100.00
4814;BME280;15375;48.540;9.268;2023-04-02T08:20:51;96995.66;;;10.17;100.00
4814;BME280;15375;48.540;9.268;2023-04-02T08:23:17;97006.31;;;10.12;100.00
4814;BME280;15375;48.540;9.268;2023-04-02T08:25:46;97007.97;;;10.06;100.00
4814;BME280;15375;48.540;9.268;2023-04-02T08:28:12;96992.97;;;9.78;100.00
4814;BME280;15375;48.540;9.268;2023-04-02T08:30:38;97016.56;;;10.04;100.00
4814;BME280;15375;48.540;9.268;2023-04-02T08:33:03;97019.22;;;10.08;100.00
4814;BME280;15375;48.540;9.268;2023-04-02T08:35:29;97014.25;;;10.03;100.00
4814;BME280;15375;48.540;9.268;2023-04-02T08:37:54;97016.28;;;9.59;100.00
4814;BME280;15375;48.540;9.268;2023-04-02T08:43:02;97017.53;;;9.55;100.00
4814;BME280;15375;48.540;9.268;2023-04-02T08:48:16;97054.06;;;9.77;100.00
4814;BME280;15375;48.540;9.268;2023-04-02T08:50:43;97048.38;;;9.72;100.00
4814;BME280;15375;48.540;9.268;2023-04-02T08:53:16;97067.34;;;9.75;100.00
4814;BME280;15375;48.540;9.268;2023-04-02T08:55:59;97065.88;;;9.71;100.00
4814;BME280;15375;48.540;9.268;2023-04-02T09:03:50;97039.75;;;9.73;100.00
4814;BME280;15375;48.540;9.268;2023-04-02T09:06:18;97057.84;;;10.03;100.00
4814;BME280;15375;48.540;9.268;2023-04-02T09:08:46;97055.81;;;9.87;100.00
4814;BME280;15375;48.540;9.268;2023-04-02T09:14:00;97052.00;;;10.24;100.00
4814;BME280;15375;48.540;9.268;2023-04-02T09:16:48;97065.75;;;10.37;100.00
4814;BME280;15375;48.540;9.268;2023-04-02T09:19:18;97069.72;;;10.52;100.00
4814;BME280;15375;48.540;9.268;2023-04-02T09:21:55;97064.16;;;10.55;100.00
4814;BME280;15375;48.540;9.268;2023-04-02T09:24:24;97077.53;;;10.50;100.00
4814;BME280;15375;48.540;9.268;2023-04-02T09:26:49;97076.09;;;10.61;100.00
4814;BME280;15375;48.540;9.268;2023-04-02T09:29:25;97057.81;;;10.42;100.00
4814;BME280;15375;48.540;9.268;2023-04-02T09:32:05;97086.53;;;10.66;100.00
4814;BME280;15375;48.540;9.268;2023-04-02T09:34:35;97088.03;;;10.67;100.00
4814;BME280;15375;48.540;9.268;2023-04-02T09:37:18;97076.63;;;10.72;100.00
4814;BME280;15375;48.540;9.268;2023-04-02T09:39:44;97093.72;;;11.09;100.00
4814;BME280;15375;48.540;9.268;2023-04-02T09:42:32;97104.28;;;11.23;97.82
4814;BME280;15375;48.540;9.268;2023-04-02T09:47:42;97113.47;;;11.61;99.62
4814;BME280;15375;48.540;9.268;2023-04-02T09:52:39;97106.59;;;10.92;99.74
4814;BME280;15375;48.540;9.268;2023-04-02T09:57:39;97113.41;;;11.00;98.95
4814;BME280;15375;48.540;9.268;2023-04-02T10:02:59;97111.97;;;11.60;88.72
4814;BME280;15375;48.540;9.268;2023-04-02T10:05:25;97108.28;;;11.50;90.72
4814;BME280;15375;48.540;9.268;2023-04-02T10:07:52;97111.63;;;11.74;91.89
4814;BME280;15375;48.540;9.268;2023-04-02T10:13:08;97136.34;;;11.99;91.50
4814;BME280;15375;48.540;9.268;2023-04-02T10:18:21;97116.94;;;11.94;84.96
4814;BME280;15375;48.540;9.268;2023-04-02T10:20:50;97142.81;;;12.05;85.96
4814;BME280;15375;48.540;9.268;2023-04-02T10:23:17;97129.31;;;11.98;85.85
4814;BME280;15375;48.540;9.268;2023-04-02T10:25:54;97133.34;;;12.23;85.25
4814;BME280;15375;48.540;9.268;2023-04-02T10:31:18;97140.63;;;11.84;84.38
4814;BME280;15375;48.540;9.268;2023-04-02T10:33:50;97140.78;;;12.22;80.18
4814;BME280;15375;48.540;9.268;2023-04-02T10:36:26;97140.78;;;12.51;80.58
4814;BME280;15375;48.540;9.268;2023-04-02T10:39:06;97143.94;;;12.49;75.48
4814;BME280;15375;48.540;9.268;2023-04-02T10:46:47;97146.63;;;12.91;80.37
4814;BME280;15375;48.540;9.268;2023-04-02T10:52:26;97145.56;;;13.38;75.00
4814;BME280;15375;48.540;9.268;2023-04-02T10:54:59;97143.78;;;13.44;76.09
4814;BME280;15375;48.540;9.268;2023-04-02T10:57:40;97152.88;;;13.67;74.94
4814;BME280;15375;48.540;9.268;2023-04-02T11:05:39;97148.66;;;13.75;69.42
4814;BME280;15375;48.540;9.268;2023-04-02T11:11:00;97164.84;;;13.35;70.50
4814;BME280;15375;48.540;9.268;2023-04-02T11:16:11;97156.59;;;12.97;70.71
4814;BME280;15375;48.540;9.268;2023-04-02T11:18:40;97175.38;;;13.11;73.25
4814;BME280;15375;48.540;9.268;2023-04-02T11:23:37;97170.53;;;13.28;74.12
4814;BME280;15375;48.540;9.268;2023-04-02T11:29:20;97161.53;;;13.40;69.88
4814;BME280;15375;48.540;9.268;2023-04-02T11:31:47;97182.81;;;13.49;73.38
4814;BME280;15375;48.540;9.268;2023-04-02T11:40:01;97178.44;;;13.26;70.02
4814;BME280;15375;48.540;9.268;2023-04-02T11:42:35;97191.53;;;13.06;72.52
4814;BME280;15375;48.540;9.268;2023-04-02T11:50:39;97206.31;;;12.96;77.80
4814;BME280;15375;48.540;9.268;2023-04-02T11:55:39;97201.16;;;12.98;75.78
4814;BME280;15375;48.540;9.268;2023-04-02T12:03:58;97210.56;;;12.43;82.41
4814;BME280;15375;48.540;9.268;2023-04-02T12:12:36;97228.81;;;12.01;86.50
4814;BME280;15375;48.540;9.268;2023-04-02T12:15:27;97229.34;;;12.12;88.50
4814;BME280;15375;48.540;9.268;2023-04-02T12:17:52;97228.88;;;12.13;88.07
4814;BME280;15375;48.540;9.268;2023-04-02T12:20:19;97232.50;;;12.39;84.46
4814;BME280;15375;48.540;9.268;2023-04-02T12:22:51;97217.84;;;12.33;82.86
4814;BME280;15375;48.540;9.268;2023-04-02T12:27:46;97245.06;;;12.53;83.60
4814;BME280;15375;48.540;9.268;2023-04-02T12:30:18;97243.81;;;12.70;82.33
4814;BME280;15375;48.540;9.268;2023-04-02T12:32:43;97236.16;;;12.77;79.96
4814;BME280;15375;48.540;9.268;2023-04-02T12:35:38;97236.94;;;12.78;76.33
4814;BME280;15375;48.540;9.268;2023-04-02T12:38:18;97249.19;;;12.45;77.03
4814;BME280;15375;48.540;9.268;2023-04-02T12:40:53;97241.97;;;12.22;77.95
4814;BME280;15375;48.540;9.268;2023-04-02T12:43:24;97248.63;;;12.21;78.50
4814;BME280;15375;48.540;9.268;2023-04-02T12:45:54;97250.09;;;12.26;80.66
4814;BME280;15375;48.540;9.268;2023-04-02T12:48:21;97247.34;;;12.09;81.38
4814;BME280;15375;48.540;9.268;2023-04-02T12:50:47;97226.44;;;12.03;76.88
4814;BME280;15375;48.540;9.268;2023-04-02T12:53:19;97228.47;;;12.15;78.25
4814;BME280;15375;48.540;9.268;2023-04-02T12:55:50;97266.44;;;12.42;77.90
4814;BME280;15375;48.540;9.268;2023-04-02T12:58:32;97267.28;;;12.55;81.84
4814;BME280;15375;48.540;9.268;2023-04-02T13:01:22;97260.34;;;12.79;79.62
4814;BME280;15375;48.540;9.268;2023-04-02T13:06:26;97254.50;;;12.93;79.25
4814;BME280;15375;48.540;9.268;2023-04-02T13:08:53;97255.19;;;13.10;76.96
4814;BME280;15375;48.540;9.268;2023-04-02T13:11:19;97259.56;;;13.07;74.91
4814;BME280;15375;48.540;9.268;2023-04-02T13:13:46;97235.38;;;12.77;74.53
4814;BME280;15375;48.540;9.268;2023-04-02T13:18:43;97257.00;;;12.59;77.27
4814;BME280;15375;48.540;9.268;2023-04-02T13:23:44;97245.63;;;12.60;74.63
4814;BME280;15375;48.540;9.268;2023-04-02T13:26:21;97256.66;;;12.57;75.86
4814;BME280;15375;48.540;9.268;2023-04-02T13:28:58;97268.88;;;12.68;77.00
4814;BME280;15375;48.540;9.268;2023-04-02T13:31:25;97268.63;;;12.63;77.55
4814;BME280;15375;48.540;9.268;2023-04-02T13:33:50;97268.03;;;12.84;76.48
4814;BME280;15375;48.540;9.268;2023-04-02T13:36:16;97263.84;;;12.79;73.35
4814;BME280;15375;48.540;9.268;2023-04-02T13:38:41;97253.72;;;12.93;75.83
4814;BME280;15375;48.540;9.268;2023-04-02T13:41:20;97256.88;;;13.32;74.17
4814;BME280;15375;48.540;9.268;2023-04-02T13:43:51;97250.16;;;13.08;74.60
4814;BME280;15375;48.540;9.268;2023-04-02T13:46:22;97271.25;;;12.95;74.33
4814;BME280;15375;48.540;9.268;2023-04-02T13:48:50;97261.69;;;12.87;76.66
4814;BME280;15375;48.540;9.268;2023-04-02T13:51:21;97270.16;;;13.05;73.89
4814;BME280;15375;48.540;9.268;2023-04-02T13:53:52;97260.75;;;12.94;74.12
4814;BME280;15375;48.540;9.268;2023-04-02T13:56:18;97248.75;;;12.75;77.59
4814;BME280;15375;48.540;9.268;2023-04-02T13:58:44;97250.94;;;13.09;75.88
4814;BME280;15375;48.540;9.268;2023-04-02T14:01:10;97261.91;;;13.09;74.05
4814;BME280;15375;48.540;9.268;2023-04-02T14:03:36;97270.91;;;13.34;75.65
4814;BME280;15375;48.540;9.268;2023-04-02T14:06:11;97278.94;;;13.41;74.05
4814;BME280;15375;48.540;9.268;2023-04-02T14:09:03;97280.63;;;13.10;71.66
4814;BME280;15375;48.540;9.268;2023-04-02T14:11:56;97281.34;;;12.98;72.27
4814;BME280;15375;48.540;9.268;2023-04-02T14:17:13;97280.00;;;12.90;76.72
4814;BME280;15375;48.540;9.268;2023-04-02T14:35:21;97299.38;;;13.37;75.35
4814;BME280;15375;48.540;9.268;2023-04-02T14:43:09;97306.47;;;12.80;76.28
4814;BME280;15375;48.540;9.268;2023-04-02T14:45:41;97304.84;;;12.67;75.95
4814;BME280;15375;48.540;9.268;2023-04-02T14:50:58;97269.75;;;12.04;78.62
4814;BME280;15375;48.540;9.268;2023-04-02T14:53:29;97330.94;;;12.10;86.72
4814;BME280;15375;48.540;9.268;2023-04-02T14:56:02;97285.69;;;11.38;91.87
4814;BME280;15375;48.540;9.268;2023-04-02T14:58:33;97299.03;;;11.16;95.29
4814;BME280;15375;48.540;9.268;2023-04-02T15:01:24;97292.19;;;10.88;96.47
4814;BME280;15375;48.540;9.268;2023-04-02T15:04:02;97338.09;;;10.94;98.40
4814;BME280;15375;48.540;9.268;2023-04-02T15:06:41;97331.22;;;10.85;100.00
4814;BME280;15375;48.540;9.268;2023-04-02T15:09:43;97342.28;;;10.78;99.83
4814;BME280;15375;48.540;9.268;2023-04-02T15:12:20;97351.16;;;10.82;100.00
4814;BME280;15375;48.540;9.268;2023-04-02T15:14:51;97336.06;;;10.78;100.00
4814;BME280;15375;48.540;9.268;2023-04-02T15:17:19;97344.53;;;10.83;100.00
4814;BME280;15375;48.540;9.268;2023-04-02T15:19:45;97339.41;;;10.85;100.00
4814;BME280;15375;48.540;9.268;2023-04-02T15:22:39;97362.44;;;10.84;100.00
4814;BME280;15375;48.540;9.268;2023-04-02T15:28:11;97371.50;;;10.58;100.00
4814;BME280;15375;48.540;9.268;2023-04-02T15:30:43;97357.81;;;10.39;100.00
4814;BME280;15375;48.540;9.268;2023-04-02T15:38:43;97385.19;;;10.32;100.00
4814;BME280;15375;48.540;9.268;2023-04-02T15:43:43;97382.75;;;10.10;100.00
4814;BME280;15375;48.540;9.268;2023-04-02T15:57:04;97414.97;;;9.62;100.00
4814;BME280;15375;48.540;9.268;2023-04-02T16:05:20;97418.41;;;9.36;100.00
4814;BME280;15375;48.540;9.268;2023-04-02T16:10:41;97406.66;;;9.09;100.00
4814;BME280;15375;48.540;9.268;2023-04-02T16:15:54;97429.75;;;8.93;100.00
4814;BME280;15375;48.540;9.268;2023-04-02T16:18:32;97437.13;;;8.93;100.00
4814;BME280;15375;48.540;9.268;2023-04-02T16:21:01;97439.50;;;8.91;100.00
4814;BME280;15375;48.540;9.268;2023-04-02T16:23:34;97427.84;;;8.87;100.00
4814;BME280;15375;48.540;9.268;2023-04-02T16:34:32;97442.25;;;8.87;100.00
4814;BME280;15375;48.540;9.268;2023-04-02T16:37:14;97425.66;;;8.75;100.00
4814;BME280;15375;48.540;9.268;2023-04-02T16:45:28;97466.00;;;8.80;100.00
4814;BME280;15375;48.540;9.268;2023-04-02T16:53:37;97484.47;;;8.58;100.00
4814;BME280;15375;48.540;9.268;2023-04-02T16:56:37;97488.75;;;8.52;100.00
4814;BME280;15375;48.540;9.268;2023-04-02T16:59:17;97497.03;;;8.34;100.00
4814;BME280;15375;48.540;9.268;2023-04-02T17:07:10;97507.56;;;8.18;100.00
4814;BME280;15375;48.540;9.268;2023-04-02T17:12:33;97514.28;;;8.00;100.00
4814;BME280;15375;48.540;9.268;2023-04-02T17:15:42;97520.94;;;7.88;100.00
4814;BME280;15375;48.540;9.268;2023-04-02T17:18:16;97527.53;;;7.87;100.00
4814;BME280;15375;48.540;9.268;2023-04-02T17:20:41;97510.53;;;7.72;100.00
4814;BME280;15375;48.540;9.268;2023-04-02T17:23:15;97521.81;;;7.64;100.00
4814;BME280;15375;48.540;9.268;2023-04-02T17:25:47;97529.19;;;7.60;100.00
4814;BME280;15375;48.540;9.268;2023-04-02T17:28:17;97536.19;;;7.57;100.00
4814;BME280;15375;48.540;9.268;2023-04-02T17:30:54;97529.22;;;7.49;100.00
4814;BME280;15375;48.540;9.268;2023-04-02T17:33:21;97562.56;;;7.57;100.00